sensor_id;sensor_type;location;lat;lon;timestamp;pressure;altitude;pressure_sealevel;temperature;humidity
22930;BME280;11630;42.660;23.292;2023-07-29T00:00:28;69784.84;;;20.38;62.85
22930;BME280;11630;42.660;23.292;2023-07-29T00:02:59;69778.84;;;20.25;63.79
22930;BME280;11630;42.660;23.292;2023-07-29T00:05:30;69783.84;;;20.22;64.36
22930;BME280;11630;42.660;23.292;2023-07-29T00:08:01;69796.67;;;20.40;64.08
22930;BME280;11630;42.660;23.292;2023-07-29T00:10:35;69800.72;;;20.55;63.76
22930;BME280;11630;42.660;23.292;2023-07-29T00:13:06;69818.34;;;20.61;63.75
22930;BME280;11630;42.660;23.292;2023-07-29T00:15:37;69810.38;;;20.55;64.00
22930;BME280;11630;42.660;23.292;2023-07-29T00:18:08;69805.94;;;20.59;64.16
22930;BME280;11630;42.660;23.292;2023-07-29T00:20:39;69818.61;;;20.63;64.33
22930;BME280;11630;42.660;23.292;2023-07-29T00:23:10;69813.36;;;20.64;64.82
22930;BME280;11630;42.660;23.292;2023-07-29T00:25:41;69824.89;;;20.72;64.53
22930;BME280;11630;42.660;23.292;2023-07-29T00:28:12;69852.88;;;21.00;63.52
22930;BME280;11630;42.660;23.292;2023-07-29T00:30:42;69828.22;;;20.70;64.88
22930;BME280;11630;42.660;23.292;2023-07-29T00:33:13;69844.40;;;20.88;64.39
22930;BME280;11630;42.660;23.292;2023-07-29T00:35:45;69865.39;;;20.90;63.70
22930;BME280;11630;42.660;23.292;2023-07-29T00:38:15;69854.28;;;20.97;63.54
22930;BME280;11630;42.660;23.292;2023-07-29T00:40:45;69861.48;;;20.94;63.82
22930;BME280;11630;42.660;23.292;2023-07-29T00:43:16;69849.91;;;20.91;63.93
22930;BME280;11630;42.660;23.292;2023-07-29T00:45:47;69836.70;;;20.84;64.22
22930;BME280;11630;42.660;23.292;2023-07-29T00:48:19;69862.83;;;20.99;63.70
22930;BME280;11630;42.660;23.292;2023-07-29T00:50:50;69825.44;;;20.73;64.35
22930;BME280;11630;42.660;23.292;2023-07-29T00:53:22;69825.78;;;20.64;64.84
22930;BME280;11630;42.660;23.292;2023-07-29T00:55:52;69809.81;;;20.57;64.96
22930;BME280;11630;42.660;23.292;2023-07-29T00:58:23;69833.72;;;20.75;64.69
22930;BME280;11630;42.660;23.292;2023-07-29T01:00:54;69832.64;;;20.69;64.93
22930;BME280;11630;42.660;23.292;2023-07-29T01:03:25;69825.78;;;20.64;65.08
22930;BME280;11630;42.660;23.292;2023-07-29T01:09:07;69838.98;;;20.71;65.17
22930;BME280;11630;42.660;23.292;2023-07-29T01:14:51;69788.16;;;20.36;66.50
22930;BME280;11630;42.660;23.292;2023-07-29T01:17:29;69789.28;;;20.32;66.79
22930;BME280;11630;42.660;23.292;2023-07-29T01:20:09;69775.04;;;20.17;67.65
22930;BME280;11630;42.660;23.292;2023-07-29T01:22:41;69770.60;;;20.20;67.81
22930;BME280;11630;42.660;23.292;2023-07-29T01:25:11;69789.55;;;20.31;67.44
22930;BME280;11630;42.660;23.292;2023-07-29T01:27:45;69777.44;;;20.28;67.71
22930;BME280;11630;42.660;23.292;2023-07-29T01:30:17;69759.11;;;20.08;68.32
22930;BME280;11630;42.660;23.292;2023-07-29T01:32:59;69751.15;;;20.02;68.27
22930;BME280;11630;42.660;23.292;2023-07-29T01:38:11;69752.83;;;19.96;68.95
22930;BME280;11630;42.660;23.292;2023-07-29T01:40:36;69752.73;;;20.10;68.65
22930;BME280;11630;42.660;23.292;2023-07-29T01:43:06;69783.05;;;20.15;68.21
22930;BME280;11630;42.660;23.292;2023-07-29T01:45:39;69794.83;;;20.27;68.00
22930;BME280;11630;42.660;23.292;2023-07-29T01:48:09;69770.95;;;20.07;68.88
22930;BME280;11630;42.660;23.292;2023-07-29T01:50:40;69739.59;;;19.91;69.69
22930;BME280;11630;42.660;23.292;2023-07-29T01:53:10;69723.42;;;19.78;70.36
22930;BME280;11630;42.660;23.292;2023-07-29T01:55:42;69719.83;;;19.78;70.68
22930;BME280;11630;42.660;23.292;2023-07-29T01:58:12;69739.65;;;19.84;70.39
22930;BME280;11630;42.660;23.292;2023-07-29T02:00:43;69733.84;;;19.87;70.25
22930;BME280;11630;42.660;23.292;2023-07-29T02:03:14;69720.11;;;19.77;70.50
22930;BME280;11630;42.660;23.292;2023-07-29T02:05:45;69698.48;;;19.54;71.29
22930;BME280;11630;42.660;23.292;2023-07-29T02:08:15;69723.56;;;19.53;71.74
22930;BME280;11630;42.660;23.292;2023-07-29T02:10:46;69701.78;;;19.57;71.67
22930;BME280;11630;42.660;23.292;2023-07-29T02:13:16;69700.14;;;19.53;72.13
22930;BME280;11630;42.660;23.292;2023-07-29T02:15:47;69719.91;;;19.68;71.69
22930;BME280;11630;42.660;23.292;2023-07-29T02:18:19;69710.58;;;19.57;72.08
22930;BME280;11630;42.660;23.292;2023-07-29T02:20:50;69725.64;;;19.75;71.56
22930;BME280;11630;42.660;23.292;2023-07-29T02:23:20;69720.13;;;19.75;71.45
22930;BME280;11630;42.660;23.292;2023-07-29T02:25:52;69728.08;;;19.81;71.00
22930;BME280;11630;42.660;23.292;2023-07-29T02:28:22;69726.48;;;19.74;71.19
22930;BME280;11630;42.660;23.292;2023-07-29T02:33:40;69694.38;;;19.49;72.68
22930;BME280;11630;42.660;23.292;2023-07-29T02:36:12;69698.76;;;19.53;72.52
22930;BME280;11630;42.660;23.292;2023-07-29T02:38:42;69707.84;;;19.55;72.69
22930;BME280;11630;42.660;23.292;2023-07-29T02:41:13;69676.52;;;19.39;73.17
22930;BME280;11630;42.660;23.292;2023-07-29T02:43:47;69676.02;;;19.31;73.92
22930;BME280;11630;42.660;23.292;2023-07-29T02:46:15;69678.45;;;19.37;74.00
22930;BME280;11630;42.660;23.292;2023-07-29T02:48:46;69660.95;;;19.16;74.61
22930;BME280;11630;42.660;23.292;2023-07-29T02:51:16;69647.50;;;19.05;75.34
22930;BME280;11630;42.660;23.292;2023-07-29T02:53:47;69632.95;;;18.98;75.56
22930;BME280;11630;42.660;23.292;2023-07-29T02:56:18;69646.39;;;19.09;75.44
22930;BME280;11630;42.660;23.292;2023-07-29T02:58:48;69662.33;;;19.16;75.33
22930;BME280;11630;42.660;23.292;2023-07-29T03:01:18;69659.02;;;19.18;75.03
22930;BME280;11630;42.660;23.292;2023-07-29T03:03:49;69674.13;;;19.23;74.55
22930;BME280;11630;42.660;23.292;2023-07-29T03:06:19;69658.51;;;19.10;75.42
22930;BME280;11630;42.660;23.292;2023-07-29T03:08:49;69662.80;;;19.29;74.79
22930;BME280;11630;42.660;23.292;2023-07-29T03:11:20;69683.95;;;19.39;74.33
22930;BME280;11630;42.660;23.292;2023-07-29T03:13:51;69705.17;;;19.40;74.19
22930;BME280;11630;42.660;23.292;2023-07-29T03:16:24;69679.91;;;19.27;74.48
22930;BME280;11630;42.660;23.292;2023-07-29T03:18:56;69637.06;;;19.01;74.52
22930;BME280;11630;42.660;23.292;2023-07-29T03:21:27;69654.38;;;19.08;74.94
22930;BME280;11630;42.660;23.292;2023-07-29T03:23:58;69640.32;;;19.06;75.39
22930;BME280;11630;42.660;23.292;2023-07-29T03:26:29;69670.31;;;19.17;74.93
22930;BME280;11630;42.660;23.292;2023-07-29T03:28:59;69656.55;;;19.15;74.53
22930;BME280;11630;42.660;23.292;2023-07-29T03:31:30;69614.05;;;18.77;76.12
22930;BME280;11630;42.660;23.292;2023-07-29T03:34:01;69626.16;;;18.78;76.46
22930;BME280;11630;42.660;23.292;2023-07-29T03:36:32;69611.56;;;18.81;76.59
22930;BME280;11630;42.660;23.292;2023-07-29T03:39:03;69628.28;;;18.95;76.79
22930;BME280;11630;42.660;23.292;2023-07-29T03:41:34;69650.78;;;19.11;76.15
22930;BME280;11630;42.660;23.292;2023-07-29T03:44:05;69641.95;;;19.15;75.91
22930;BME280;11630;42.660;23.292;2023-07-29T03:46:35;69696.82;;;19.55;74.44
22930;BME280;11630;42.660;23.292;2023-07-29T03:49:10;69699.02;;;19.54;73.87
22930;BME280;11630;42.660;23.292;2023-07-29T03:51:41;69717.69;;;19.69;73.50
22930;BME280;11630;42.660;23.292;2023-07-29T03:54:12;69700.67;;;19.56;73.81
22930;BME280;11630;42.660;23.292;2023-07-29T03:56:43;69713.86;;;19.63;73.79
22930;BME280;11630;42.660;23.292;2023-07-29T03:59:13;69702.84;;;19.63;73.68
22930;BME280;11630;42.660;23.292;2023-07-29T04:01:43;69726.49;;;19.72;73.42
22930;BME280;11630;42.660;23.292;2023-07-29T04:04:14;69726.70;;;19.81;73.28
22930;BME280;11630;42.660;23.292;2023-07-29T04:06:45;69723.66;;;19.82;73.26
22930;BME280;11630;42.660;23.292;2023-07-29T04:09:16;69741.83;;;19.88;73.09
22930;BME280;11630;42.660;23.292;2023-07-29T04:11:46;69751.16;;;19.97;72.78
22930;BME280;11630;42.660;23.292;2023-07-29T04:14:18;69749.19;;;20.04;72.84
22930;BME280;11630;42.660;23.292;2023-07-29T04:16:48;69772.00;;;20.18;72.29
22930;BME280;11630;42.660;23.292;2023-07-29T04:19:19;69785.42;;;20.31;72.25
22930;BME280;11630;42.660;23.292;2023-07-29T04:21:50;69793.62;;;20.44;71.56
22930;BME280;11630;42.660;23.292;2023-07-29T04:24:21;69804.05;;;20.53;71.05
22930;BME280;11630;42.660;23.292;2023-07-29T04:26:51;69834.04;;;20.67;70.32
22930;BME280;11630;42.660;23.292;2023-07-29T04:29:22;69800.50;;;20.46;70.69
22930;BME280;11630;42.660;23.292;2023-07-29T04:31:51;69794.78;;;20.37;71.38
22930;BME280;11630;42.660;23.292;2023-07-29T04:34:21;69802.17;;;20.45;71.04
22930;BME280;11630;42.660;23.292;2023-07-29T04:36:51;69773.56;;;20.32;71.84
22930;BME280;11630;42.660;23.292;2023-07-29T04:39:22;69763.77;;;20.10;72.37
22930;BME280;11630;42.660;23.292;2023-07-29T04:41:52;69783.26;;;20.24;71.84
22930;BME280;11630;42.660;23.292;2023-07-29T04:44:23;69790.36;;;20.38;71.14
22930;BME280;11630;42.660;23.292;2023-07-29T04:46:54;69764.28;;;20.16;71.22
22930;BME280;11630;42.660;23.292;2023-07-29T04:49:25;69753.09;;;20.00;71.55
22930;BME280;11630;42.660;23.292;2023-07-29T04:51:56;69743.19;;;19.91;72.00
22930;BME280;11630;42.660;23.292;2023-07-29T04:54:28;69790.14;;;20.29;70.94
22930;BME280;11630;42.660;23.292;2023-07-29T04:56:58;69783.48;;;20.33;71.36
22930;BME280;11630;42.660;23.292;2023-07-29T04:59:29;69835.09;;;20.75;69.39
22930;BME280;11630;42.660;23.292;2023-07-29T05:02:00;69866.91;;;21.09;67.98
22930;BME280;11630;42.660;23.292;2023-07-29T05:04:35;69882.03;;;21.19;67.06
22930;BME280;11630;42.660;23.292;2023-07-29T05:07:09;69903.70;;;21.40;66.08
22930;BME280;11630;42.660;23.292;2023-07-29T05:09:39;69904.55;;;21.37;65.92
22930;BME280;11630;42.660;23.292;2023-07-29T05:12:10;69922.64;;;21.61;64.64
22930;BME280;11630;42.660;23.292;2023-07-29T05:14:41;69890.52;;;21.28;65.42
22930;BME280;11630;42.660;23.292;2023-07-29T05:17:13;69924.11;;;21.46;65.02
22930;BME280;11630;42.660;23.292;2023-07-29T05:19:44;69932.91;;;21.56;65.20
22930;BME280;11630;42.660;23.292;2023-07-29T05:22:15;69944.59;;;21.80;64.12
22930;BME280;11630;42.660;23.292;2023-07-29T05:24:46;70016.44;;;22.29;62.57
22930;BME280;11630;42.660;23.292;2023-07-29T05:27:16;70020.25;;;22.38;61.62
22930;BME280;11630;42.660;23.292;2023-07-29T05:29:48;70056.64;;;22.58;61.26
22930;BME280;11630;42.660;23.292;2023-07-29T05:32:19;70073.80;;;22.90;60.03
22930;BME280;11630;42.660;23.292;2023-07-29T05:34:50;70031.22;;;22.50;60.75
22930;BME280;11630;42.660;23.292;2023-07-29T05:37:21;70004.59;;;22.22;61.54
22930;BME280;11630;42.660;23.292;2023-07-29T05:39:51;69989.19;;;22.08;61.71
22930;BME280;11630;42.660;23.292;2023-07-29T05:42:22;69984.75;;;22.12;62.00
22930;BME280;11630;42.660;23.292;2023-07-29T05:44:53;70034.22;;;22.54;60.85
22930;BME280;11630;42.660;23.292;2023-07-29T05:47:24;70060.55;;;22.85;60.14
22930;BME280;11630;42.660;23.292;2023-07-29T05:49:55;70111.22;;;23.24;58.78
22930;BME280;11630;42.660;23.292;2023-07-29T05:52:26;69998.00;;;22.14;60.93
22930;BME280;11630;42.660;23.292;2023-07-29T05:54:57;70028.45;;;22.50;60.12
22930;BME280;11630;42.660;23.292;2023-07-29T05:57:28;70028.45;;;22.50;60.36
22930;BME280;11630;42.660;23.292;2023-07-29T05:59:58;70060.38;;;22.74;58.95
22930;BME280;11630;42.660;23.292;2023-07-29T06:02:29;70117.86;;;23.25;58.14
22930;BME280;11630;42.660;23.292;2023-07-29T06:05:00;70133.83;;;23.36;57.78
22930;BME280;11630;42.660;23.292;2023-07-29T06:07:31;70101.65;;;23.09;57.96
22930;BME280;11630;42.660;23.292;2023-07-29T06:10:01;70106.32;;;23.12;57.21
22930;BME280;11630;42.660;23.292;2023-07-29T06:12:32;70106.32;;;23.12;56.89
22930;BME280;11630;42.660;23.292;2023-07-29T06:15:03;70157.83;;;23.49;56.67
22930;BME280;11630;42.660;23.292;2023-07-29T06:17:36;70167.73;;;23.58;56.11
22930;BME280;11630;42.660;23.292;2023-07-29T06:20:08;70219.00;;;23.97;54.95
22930;BME280;11630;42.660;23.292;2023-07-29T06:22:39;70190.23;;;23.86;55.41
22930;BME280;11630;42.660;23.292;2023-07-29T06:25:10;70208.16;;;23.99;54.59
22930;BME280;11630;42.660;23.292;2023-07-29T06:27:41;70211.34;;;24.14;54.52
22930;BME280;11630;42.660;23.292;2023-07-29T06:30:12;70183.35;;;23.81;54.86
22930;BME280;11630;42.660;23.292;2023-07-29T06:32:43;70249.67;;;24.40;53.97
22930;BME280;11630;42.660;23.292;2023-07-29T06:35:14;70233.79;;;24.18;53.47
22930;BME280;11630;42.660;23.292;2023-07-29T06:37:45;70162.92;;;23.68;54.85
22930;BME280;11630;42.660;23.292;2023-07-29T06:40:15;70240.45;;;24.19;53.42
22930;BME280;11630;42.660;23.292;2023-07-29T06:42:46;70294.31;;;24.78;52.61
22930;BME280;11630;42.660;23.292;2023-07-29T06:45:19;70313.27;;;24.98;53.05
22930;BME280;11630;42.660;23.292;2023-07-29T06:47:50;70353.92;;;25.21;52.22
22930;BME280;11630;42.660;23.292;2023-07-29T06:50:21;70396.02;;;25.63;51.35
22930;BME280;11630;42.660;23.292;2023-07-29T06:52:52;70423.88;;;25.87;50.13
22930;BME280;11630;42.660;23.292;2023-07-29T06:55:22;70431.59;;;25.94;48.75
22930;BME280;11630;42.660;23.292;2023-07-29T06:57:54;70366.39;;;25.50;48.78
22930;BME280;11630;42.660;23.292;2023-07-29T07:00:28;70389.66;;;25.61;49.98
22930;BME280;11630;42.660;23.292;2023-07-29T07:03:00;70430.16;;;25.99;49.48
22930;BME280;11630;42.660;23.292;2023-07-29T07:05:34;70430.53;;;25.90;50.01
22930;BME280;11630;42.660;23.292;2023-07-29T07:08:04;70359.14;;;25.51;50.51
22930;BME280;11630;42.660;23.292;2023-07-29T07:10:36;70429.63;;;25.96;49.98
22930;BME280;11630;42.660;23.292;2023-07-29T07:13:06;70446.30;;;26.22;49.22
22930;BME280;11630;42.660;23.292;2023-07-29T07:15:37;70494.70;;;26.54;47.64
22930;BME280;11630;42.660;23.292;2023-07-29T07:18:08;70504.42;;;26.57;47.31
22930;BME280;11630;42.660;23.292;2023-07-29T07:20:42;70493.88;;;26.52;47.29
22930;BME280;11630;42.660;23.292;2023-07-29T07:23:14;70431.48;;;26.04;48.61
22930;BME280;11630;42.660;23.292;2023-07-29T07:25:44;70490.38;;;26.43;47.60
22930;BME280;11630;42.660;23.292;2023-07-29T07:28:15;70481.44;;;26.45;47.56
22930;BME280;11630;42.660;23.292;2023-07-29T07:30:46;70585.23;;;27.31;46.34
22930;BME280;11630;42.660;23.292;2023-07-29T07:33:17;70583.61;;;27.27;45.95
22930;BME280;11630;42.660;23.292;2023-07-29T07:35:47;70655.89;;;27.95;44.72
22930;BME280;11630;42.660;23.292;2023-07-29T07:38:19;70631.35;;;27.71;44.39
22930;BME280;11630;42.660;23.292;2023-07-29T07:40:55;70555.44;;;27.04;45.60
22930;BME280;11630;42.660;23.292;2023-07-29T07:43:26;70635.21;;;27.75;44.62
22930;BME280;11630;42.660;23.292;2023-07-29T07:46:00;70523.48;;;26.94;45.99
22930;BME280;11630;42.660;23.292;2023-07-29T07:48:31;70650.95;;;27.88;44.14
22930;BME280;11630;42.660;23.292;2023-07-29T07:51:09;70634.92;;;27.76;44.84
22930;BME280;11630;42.660;23.292;2023-07-29T07:53:33;70604.58;;;27.46;45.63
22930;BME280;11630;42.660;23.292;2023-07-29T07:56:04;70604.80;;;27.50;45.13
22930;BME280;11630;42.660;23.292;2023-07-29T07:58:37;70619.16;;;27.63;44.70
22930;BME280;11630;42.660;23.292;2023-07-29T08:01:09;70628.93;;;27.84;44.62
22930;BME280;11630;42.660;23.292;2023-07-29T08:03:39;70671.57;;;28.12;43.57
22930;BME280;11630;42.660;23.292;2023-07-29T08:06:11;70701.98;;;28.37;43.36
22930;BME280;11630;42.660;23.292;2023-07-29T08:08:41;70703.09;;;28.38;43.11
22930;BME280;11630;42.660;23.292;2023-07-29T08:11:12;70745.89;;;28.78;42.27
22930;BME280;11630;42.660;23.292;2023-07-29T08:13:42;70698.34;;;28.38;43.24
22930;BME280;11630;42.660;23.292;2023-07-29T08:16:17;70703.09;;;28.38;43.39
22930;BME280;11630;42.660;23.292;2023-07-29T08:18:49;70612.47;;;27.62;44.64
22930;BME280;11630;42.660;23.292;2023-07-29T08:21:20;70685.13;;;28.23;43.19
22930;BME280;11630;42.660;23.292;2023-07-29T08:23:51;70690.64;;;28.28;42.99
22930;BME280;11630;42.660;23.292;2023-07-29T08:26:22;70701.16;;;28.35;43.56
22930;BME280;11630;42.660;23.292;2023-07-29T08:28:53;70722.97;;;28.56;42.17
22930;BME280;11630;42.660;23.292;2023-07-29T08:31:23;70744.49;;;28.78;42.46
22930;BME280;11630;42.660;23.292;2023-07-29T08:33:54;70773.83;;;28.99;42.06
22930;BME280;11630;42.660;23.292;2023-07-29T08:36:25;70781.20;;;29.12;41.42
22930;BME280;11630;42.660;23.292;2023-07-29T08:38:56;70825.75;;;29.49;40.46
22930;BME280;11630;42.660;23.292;2023-07-29T08:41:49;70851.16;;;29.71;40.18
22930;BME280;11630;42.660;23.292;2023-07-29T08:44:26;70748.40;;;28.79;41.43
22930;BME280;11630;42.660;23.292;2023-07-29T08:46:52;70759.14;;;28.90;41.27
22930;BME280;11630;42.660;23.292;2023-07-29T08:49:23;70846.44;;;29.68;40.05
22930;BME280;11630;42.660;23.292;2023-07-29T08:51:54;70885.41;;;30.05;38.86
22930;BME280;11630;42.660;23.292;2023-07-29T08:54:27;70888.95;;;30.12;38.51
22930;BME280;11630;42.660;23.292;2023-07-29T08:56:59;70921.34;;;30.37;37.86
22930;BME280;11630;42.660;23.292;2023-07-29T08:59:30;70897.88;;;30.15;37.26
22930;BME280;11630;42.660;23.292;2023-07-29T09:02:01;70898.72;;;30.14;37.14
22930;BME280;11630;42.660;23.292;2023-07-29T09:04:32;70889.88;;;30.06;36.03
22930;BME280;11630;42.660;23.292;2023-07-29T09:07:03;70942.12;;;30.54;36.13
22930;BME280;11630;42.660;23.292;2023-07-29T09:09:34;70971.13;;;30.82;36.11
22930;BME280;11630;42.660;23.292;2023-07-29T09:12:06;71022.64;;;31.25;35.28
22930;BME280;11630;42.660;23.292;2023-07-29T09:14:37;71029.88;;;31.29;34.72
22930;BME280;11630;42.660;23.292;2023-07-29T09:17:08;71004.14;;;31.08;34.71
22930;BME280;11630;42.660;23.292;2023-07-29T09:19:40;70936.30;;;30.50;35.53
22930;BME280;11630;42.660;23.292;2023-07-29T09:22:18;70879.47;;;30.08;35.43
22930;BME280;11630;42.660;23.292;2023-07-29T09:24:48;70934.94;;;30.48;35.14
22930;BME280;11630;42.660;23.292;2023-07-29T09:27:31;70943.80;;;30.56;34.83
22930;BME280;11630;42.660;23.292;2023-07-29T09:30:02;70908.92;;;30.25;35.32
22930;BME280;11630;42.660;23.292;2023-07-29T09:32:34;70993.27;;;31.02;33.62
22930;BME280;11630;42.660;23.292;2023-07-29T09:35:11;71016.33;;;31.32;33.66
22930;BME280;11630;42.660;23.292;2023-07-29T09:37:39;71101.80;;;31.97;32.67
22930;BME280;11630;42.660;23.292;2023-07-29T09:40:13;71104.02;;;31.99;32.24
22930;BME280;11630;42.660;23.292;2023-07-29T09:42:52;71132.80;;;32.24;31.44
22930;BME280;11630;42.660;23.292;2023-07-29T09:45:25;70971.99;;;30.81;33.49
22930;BME280;11630;42.660;23.292;2023-07-29T09:47:59;71032.80;;;31.38;33.04
22930;BME280;11630;42.660;23.292;2023-07-29T09:50:34;71041.16;;;31.43;32.83
22930;BME280;11630;42.660;23.292;2023-07-29T09:53:05;71116.15;;;32.12;32.05
22930;BME280;11630;42.660;23.292;2023-07-29T09:55:36;71063.30;;;31.63;32.70
22930;BME280;11630;42.660;23.292;2023-07-29T09:58:07;71101.74;;;31.99;32.15
22930;BME280;11630;42.660;23.292;2023-07-29T10:00:38;71158.74;;;32.53;31.27
22930;BME280;11630;42.660;23.292;2023-07-29T10:03:08;71189.77;;;32.81;30.82
22930;BME280;11630;42.660;23.292;2023-07-29T10:05:39;71215.55;;;33.02;30.22
22930;BME280;11630;42.660;23.292;2023-07-29T10:08:11;71246.63;;;33.28;30.24
22930;BME280;11630;42.660;23.292;2023-07-29T10:10:45;71242.16;;;33.26;29.91
22930;BME280;11630;42.660;23.292;2023-07-29T10:13:16;71183.42;;;32.74;30.88
22930;BME280;11630;42.660;23.292;2023-07-29T10:15:48;71139.72;;;32.32;30.89
22930;BME280;11630;42.660;23.292;2023-07-29T10:18:23;71239.69;;;33.23;30.02
22930;BME280;11630;42.660;23.292;2023-07-29T10:20:54;71249.66;;;33.32;29.95
22930;BME280;11630;42.660;23.292;2023-07-29T10:23:26;71289.81;;;33.69;29.11
22930;BME280;11630;42.660;23.292;2023-07-29T10:26:05;71299.55;;;33.76;29.05
22930;BME280;11630;42.660;23.292;2023-07-29T10:28:39;71320.05;;;33.95;28.50
22930;BME280;11630;42.660;23.292;2023-07-29T10:31:09;71349.70;;;34.23;28.45
22930;BME280;11630;42.660;23.292;2023-07-29T10:33:40;71285.94;;;33.66;27.95
22930;BME280;11630;42.660;23.292;2023-07-29T10:36:12;71297.33;;;33.74;28.02
22930;BME280;11630;42.660;23.292;2023-07-29T10:38:43;71377.10;;;34.48;26.40
22930;BME280;11630;42.660;23.292;2023-07-29T10:41:14;71383.23;;;34.54;26.18
22930;BME280;11630;42.660;23.292;2023-07-29T10:43:45;71422.39;;;34.85;26.36
22930;BME280;11630;42.660;23.292;2023-07-29T10:46:22;71439.25;;;35.04;25.87
22930;BME280;11630;42.660;23.292;2023-07-29T10:48:54;71449.24;;;35.13;25.75
22930;BME280;11630;42.660;23.292;2023-07-29T10:51:34;71415.44;;;34.80;26.04
22930;BME280;11630;42.660;23.292;2023-07-29T10:54:15;71338.11;;;34.10;26.67
22930;BME280;11630;42.660;23.292;2023-07-29T10:56:49;71289.00;;;33.67;27.08
22930;BME280;11630;42.660;23.292;2023-07-29T10:59:33;71363.80;;;34.37;26.03
22930;BME280;11630;42.660;23.292;2023-07-29T11:02:15;71279.05;;;33.58;26.96
22930;BME280;11630;42.660;23.292;2023-07-29T11:04:52;71292.85;;;33.73;26.91
22930;BME280;11630;42.660;23.292;2023-07-29T11:07:27;71337.30;;;34.08;26.46
22930;BME280;11630;42.660;23.292;2023-07-29T11:10:04;71320.55;;;33.98;26.59
22930;BME280;11630;42.660;23.292;2023-07-29T11:12:45;71373.27;;;34.43;25.94
22930;BME280;11630;42.660;23.292;2023-07-29T11:15:18;71361.94;;;34.31;25.82
22930;BME280;11630;42.660;23.292;2023-07-29T11:17:54;71395.17;;;34.63;25.75
22930;BME280;11630;42.660;23.292;2023-07-29T11:23:01;71454.78;;;35.18;25.14
22930;BME280;11630;42.660;23.292;2023-07-29T11:25:32;71471.22;;;35.29;25.18
22930;BME280;11630;42.660;23.292;2023-07-29T11:28:02;71477.56;;;35.36;25.08
22930;BME280;11630;42.660;23.292;2023-07-29T11:30:34;71466.19;;;35.27;24.63
22930;BME280;11630;42.660;23.292;2023-07-29T11:33:05;71487.25;;;35.46;24.33
22930;BME280;11630;42.660;23.292;2023-07-29T11:35:36;71531.37;;;35.87;24.25
22930;BME280;11630;42.660;23.292;2023-07-29T11:38:07;71537.20;;;35.91;24.14
22930;BME280;11630;42.660;23.292;2023-07-29T11:40:38;71596.89;;;36.45;23.85
22930;BME280;11630;42.660;23.292;2023-07-29T11:43:08;71588.30;;;36.36;23.57
22930;BME280;11630;42.660;23.292;2023-07-29T11:45:40;71637.16;;;36.80;21.95
22930;BME280;11630;42.660;23.292;2023-07-29T11:48:11;71470.31;;;35.32;23.07
22930;BME280;11630;42.660;23.292;2023-07-29T11:50:42;71503.41;;;35.58;23.02
22930;BME280;11630;42.660;23.292;2023-07-29T11:53:13;71480.30;;;35.41;23.22
22930;BME280;11630;42.660;23.292;2023-07-29T11:55:44;71481.72;;;35.41;23.27
22930;BME280;11630;42.660;23.292;2023-07-29T11:58:17;71510.27;;;35.68;23.12
22930;BME280;11630;42.660;23.292;2023-07-29T12:00:48;71469.44;;;35.32;23.40
22930;BME280;11630;42.660;23.292;2023-07-29T12:03:19;71562.76;;;36.13;22.88
22930;BME280;11630;42.660;23.292;2023-07-29T12:05:49;71629.09;;;36.74;22.24
22930;BME280;11630;42.660;23.292;2023-07-29T12:08:21;71653.54;;;36.96;22.34
22930;BME280;11630;42.660;23.292;2023-07-29T12:10:52;71546.62;;;36.02;22.97
22930;BME280;11630;42.660;23.292;2023-07-29T12:13:24;71602.98;;;36.51;22.49
22930;BME280;11630;42.660;23.292;2023-07-29T12:16:06;71600.78;;;36.49;22.24
22930;BME280;11630;42.660;23.292;2023-07-29T12:18:36;71542.77;;;35.96;22.75
22930;BME280;11630;42.660;23.292;2023-07-29T12:21:03;71632.97;;;36.78;22.20
22930;BME280;11630;42.660;23.292;2023-07-29T12:23:34;71520.27;;;35.77;23.08
22930;BME280;11630;42.660;23.292;2023-07-29T12:26:06;71589.95;;;36.38;22.54
22930;BME280;11630;42.660;23.292;2023-07-29T12:28:44;71615.51;;;36.61;22.23
22930;BME280;11630;42.660;23.292;2023-07-29T12:31:11;71656.25;;;37.01;21.75
22930;BME280;11630;42.660;23.292;2023-07-29T12:33:42;71671.31;;;37.12;21.59
22930;BME280;11630;42.660;23.292;2023-07-29T12:36:14;71658.78;;;37.02;21.61
22930;BME280;11630;42.660;23.292;2023-07-29T12:38:47;71572.75;;;36.22;22.25
22930;BME280;11630;42.660;23.292;2023-07-29T12:41:16;71651.68;;;36.91;21.78
22930;BME280;11630;42.660;23.292;2023-07-29T12:43:47;71693.54;;;37.32;21.40
22930;BME280;11630;42.660;23.292;2023-07-29T12:46:17;71462.84;;;35.24;23.14
22930;BME280;11630;42.660;23.292;2023-07-29T12:48:48;71605.78;;;36.53;22.30
22930;BME280;11630;42.660;23.292;2023-07-29T12:51:19;71543.28;;;35.99;22.46
22930;BME280;11630;42.660;23.292;2023-07-29T12:53:50;71649.34;;;36.93;21.38
22930;BME280;11630;42.660;23.292;2023-07-29T12:56:22;71581.01;;;36.32;21.85
22930;BME280;11630;42.660;23.292;2023-07-29T12:58:52;71626.86;;;36.72;21.33
22930;BME280;11630;42.660;23.292;2023-07-29T13:01:23;71702.13;;;37.41;21.06
22930;BME280;11630;42.660;23.292;2023-07-29T13:03:54;71709.09;;;37.46;21.14
22930;BME280;11630;42.660;23.292;2023-07-29T13:06:25;71599.09;;;36.47;21.59
22930;BME280;11630;42.660;23.292;2023-07-29T13:08:58;71513.09;;;35.68;22.49
22930;BME280;11630;42.660;23.292;2023-07-29T13:11:29;71469.80;;;35.29;22.71
22930;BME280;11630;42.660;23.292;2023-07-29T13:13:59;71471.42;;;35.33;22.79
22930;BME280;11630;42.660;23.292;2023-07-29T13:16:29;71554.13;;;36.07;21.85
22930;BME280;11630;42.660;23.292;2023-07-29T13:18:58;71425.91;;;34.92;22.53
22930;BME280;11630;42.660;23.292;2023-07-29T13:21:29;71445.39;;;35.07;22.28
22930;BME280;11630;42.660;23.292;2023-07-29T13:24:00;71539.13;;;35.94;21.78
22930;BME280;11630;42.660;23.292;2023-07-29T13:26:30;71518.28;;;35.76;21.60